Notice: Undefined index: station in /home3/dimtiris/public_html/webApp/metar/index.php on line 4

Metar

Weather conditions for all airports of the world. Just type the ICAO code of an airport.

LGAV 021050Z 19011KT 9999 -RA SCT020 SCT080 BKN180 27/20 Q1005 NOSIG

STATION LGAV
OBSERVED Tue Sep 2, 04:50 MDT
NOW Tue Sep 2, 05:31 MDT
AGE 41 min ago
WIND S at 13 mph
VISIBILITY 16 miles
CONDITIONS light rain
CLOUDS mostly cloudy
TEMP 81°F (27°C)
DEWPT 68°F (20°C)
HUMIDITY 66%
HEAT INDEX 84°F (29°C)
BAROMETER 1005 hPa (29.68 in Hg)

Get weather info from other station:

Some ICAO codes to try: